Time;durP1;ratioP1;P1;durP2;ratioP2;P2;SDS_P1;SDS_P2;PMS_P1;PMS_P2;Temp;Humidity;BMP_temperature;BMP_pressure;BME280_temperature;BME280_humidity;BME280_pressure;Samples;Min_cycle;Max_cycle;Signal;HPM_P1;HPM_P2
2023/10/20 00:01:26;;;;;;;4.75;2.65;;;10.40;99.90;;;;;;5012192;28;20045;-72
2023/10/20 00:03:51;;;;;;;5.03;2.97;;;10.40;99.90;;;;;;5013379;28;20059;-72
2023/10/20 00:06:17;;;;;;;4.72;3.13;;;10.40;99.90;;;;;;5012391;28;20030;-72
2023/10/20 00:08:44;;;;;;;5.65;2.70;;;10.40;99.90;;;;;;5012055;28;20026;-71
2023/10/20 00:11:10;;;;;;;5.40;2.70;;;10.40;99.90;;;;;;5016681;28;20113;-72
2023/10/20 00:13:36;;;;;;;5.13;2.80;;;10.50;99.90;;;;;;5017004;28;20080;-72
2023/10/20 00:16:02;;;;;;;7.97;3.35;;;10.50;99.90;;;;;;5015829;28;20474;-72
2023/10/20 00:18:27;;;;;;;5.43;3.20;;;10.50;99.90;;;;;;5017493;28;20102;-71
2023/10/20 00:20:53;;;;;;;5.22;3.03;;;10.50;99.90;;;;;;5017061;28;20034;-71
2023/10/20 00:23:19;;;;;;;5.00;2.80;;;10.50;99.90;;;;;;5018435;28;20168;-71
2023/10/20 00:25:44;;;;;;;6.45;2.88;;;10.50;99.90;;;;;;5018264;28;20026;-71
2023/10/20 00:28:10;;;;;;;5.95;2.85;;;10.50;99.90;;;;;;5017843;28;20084;-71
2023/10/20 00:30:37;;;;;;;4.47;2.75;;;10.50;99.90;;;;;;5015965;28;20037;-71
2023/10/20 00:33:03;;;;;;;5.38;2.40;;;10.50;99.90;;;;;;5016643;28;20029;-71
2023/10/20 00:35:29;;;;;;;5.35;2.97;;;10.50;99.90;;;;;;5016704;28;20171;-71
2023/10/20 00:37:56;;;;;;;7.20;2.95;;;10.50;99.90;;;;;;5015414;28;20029;-71
2023/10/20 00:40:21;;;;;;;6.70;3.03;;;10.40;99.90;;;;;;5015243;28;20471;-71
2023/10/20 00:42:47;;;;;;;5.00;2.85;;;10.40;99.90;;;;;;5016724;28;20117;-71
2023/10/20 00:45:13;;;;;;;7.38;2.92;;;10.40;99.90;;;;;;5016361;28;20025;-71
2023/10/20 00:47:39;;;;;;;5.43;2.70;;;10.40;99.90;;;;;;5016899;28;20521;-71
2023/10/20 00:50:11;;;;;;;5.63;3.03;;;10.40;99.90;;;;;;5016561;28;20030;-70
2023/10/20 00:52:37;;;;;;;5.32;3.15;;;10.40;99.90;;;;;;5016315;28;20026;-71
2023/10/20 00:55:07;;;;;;;4.30;2.72;;;10.40;99.90;;;;;;5016520;28;20092;-71
2023/10/20 00:57:34;;;;;;;6.18;3.15;;;10.40;99.90;;;;;;5016254;28;20026;-71
2023/10/20 01:00:04;;;;;;;6.35;3.30;;;10.40;99.90;;;;;;5015967;28;20033;-71
2023/10/20 01:02:30;;;;;;;7.35;3.05;;;10.40;99.90;;;;;;5016216;28;20051;-71
2023/10/20 01:04:57;;;;;;;9.25;3.65;;;10.50;99.90;;;;;;5016045;28;20022;-71
2023/10/20 01:07:24;;;;;;;8.25;3.47;;;10.50;99.90;;;;;;5016039;28;20026;-71
2023/10/20 01:09:50;;;;;;;6.63;3.42;;;10.50;99.90;;;;;;5015935;28;20470;-70
2023/10/20 01:12:16;;;;;;;7.97;3.58;;;10.50;99.90;;;;;;5015981;28;20030;-71
2023/10/20 01:14:42;;;;;;;5.55;3.38;;;10.40;99.90;;;;;;5016158;28;20485;-71
2023/10/20 01:17:09;;;;;;;5.18;2.83;;;10.40;99.90;;;;;;5016303;28;20033;-71
2023/10/20 01:19:37;;;;;;;5.72;3.15;;;10.40;99.90;;;;;;5015814;28;20049;-71
2023/10/20 01:22:04;;;;;;;4.85;3.40;;;10.40;99.90;;;;;;5014836;28;20022;-71
2023/10/20 01:24:29;;;;;;;7.55;4.40;;;10.30;99.90;;;;;;5015751;28;20022;-71
2023/10/20 01:26:55;;;;;;;6.43;3.55;;;10.30;99.90;;;;;;5015865;28;20029;-71
2023/10/20 01:29:21;;;;;;;6.45;3.35;;;10.40;99.90;;;;;;5015868;28;20030;-71
2023/10/20 01:31:47;;;;;;;6.68;3.45;;;10.40;99.90;;;;;;5015759;28;20454;-71
2023/10/20 01:34:12;;;;;;;6.32;3.88;;;10.40;99.90;;;;;;5015668;28;20037;-71
2023/10/20 01:36:39;;;;;;;5.05;3.33;;;10.40;99.90;;;;;;5015502;28;20030;-70
2023/10/20 01:39:05;;;;;;;6.32;3.30;;;10.40;99.90;;;;;;5015506;28;20030;-71
2023/10/20 01:41:31;;;;;;;8.95;4.75;;;10.40;99.90;;;;;;5015507;28;20088;-71
2023/10/20 01:43:57;;;;;;;7.15;3.90;;;10.40;99.90;;;;;;5015206;28;20026;-71
2023/10/20 01:46:23;;;;;;;7.93;3.55;;;10.30;99.90;;;;;;5015611;28;20018;-71
2023/10/20 01:48:49;;;;;;;5.68;3.42;;;10.30;99.90;;;;;;5015097;28;20026;-71
2023/10/20 01:51:15;;;;;;;6.55;3.60;;;10.30;99.90;;;;;;5015521;28;20393;-71
2023/10/20 01:53:41;;;;;;;5.55;3.42;;;10.30;99.90;;;;;;5015641;28;20041;-71
2023/10/20 01:56:07;;;;;;;5.70;3.80;;;10.30;99.90;;;;;;5015381;28;20034;-71
2023/10/20 01:58:33;;;;;;;7.28;3.45;;;10.30;99.90;;;;;;5014954;28;20067;-71
2023/10/20 02:00:58;;;;;;;5.97;3.47;;;10.30;99.90;;;;;;5014933;28;20025;-71
2023/10/20 02:03:24;;;;;;;7.25;3.90;;;10.30;99.90;;;;;;5014991;28;20026;-71
2023/10/20 02:05:50;;;;;;;5.57;3.65;;;10.40;99.90;;;;;;5015297;28;20038;-71
2023/10/20 02:08:16;;;;;;;7.43;4.22;;;10.30;99.90;;;;;;5015117;28;20101;-71
2023/10/20 02:10:44;;;;;;;6.72;4.15;;;10.40;99.90;;;;;;5013519;28;20393;-71
2023/10/20 02:13:10;;;;;;;6.80;4.20;;;10.40;99.90;;;;;;5014778;28;20022;-71
2023/10/20 02:15:36;;;;;;;6.22;3.38;;;10.40;99.90;;;;;;5013845;28;20115;-71
2023/10/20 02:18:02;;;;;;;6.22;3.38;;;10.40;99.90;;;;;;5014718;28;20490;-71
2023/10/20 02:20:27;;;;;;;6.93;3.72;;;10.40;99.90;;;;;;5014523;28;20478;-71
2023/10/20 02:22:54;;;;;;;6.32;3.70;;;10.40;99.90;;;;;;5013993;28;20041;-71
2023/10/20 02:25:20;;;;;;;6.10;3.45;;;10.40;99.90;;;;;;5014571;28;20026;-71
2023/10/20 02:27:47;;;;;;;4.78;3.13;;;10.40;99.90;;;;;;5014585;28;20432;-73
2023/10/20 02:30:13;;;;;;;4.10;2.70;;;10.40;99.90;;;;;;5014540;28;20025;-71
2023/10/20 02:32:40;;;;;;;5.82;3.10;;;10.40;99.90;;;;;;5014364;28;20044;-71
2023/10/20 02:35:07;;;;;;;4.68;2.88;;;10.40;99.90;;;;;;5014628;28;20034;-71
2023/10/20 02:37:33;;;;;;;5.30;3.28;;;10.40;99.90;;;;;;5014348;28;20460;-71
2023/10/20 02:39:59;;;;;;;5.70;3.50;;;10.40;99.90;;;;;;5014235;28;20029;-71
2023/10/20 02:42:25;;;;;;;5.72;3.42;;;10.40;99.90;;;;;;5014355;28;20018;-71
2023/10/20 02:44:50;;;;;;;5.50;3.65;;;10.40;99.90;;;;;;5013398;28;20501;-71
2023/10/20 02:47:16;;;;;;;6.93;3.50;;;10.30;99.90;;;;;;5027722;28;20513;-71
2023/10/20 02:49:42;;;;;;;8.75;3.80;;;10.30;99.90;;;;;;5033476;28;20025;-71
2023/10/20 02:52:08;;;;;;;14.20;7.07;;;10.30;99.90;;;;;;5033554;28;20025;-71
2023/10/20 02:54:34;;;;;;;13.77;5.70;;;10.30;99.90;;;;;;5034417;28;20116;-71
2023/10/20 02:57:00;;;;;;;9.90;5.38;;;10.30;99.90;;;;;;5034528;28;20028;-71
2023/10/20 02:59:25;;;;;;;13.88;6.32;;;10.30;99.90;;;;;;5034089;28;20041;-71
2023/10/20 03:01:55;;;;;;;11.98;5.97;;;10.30;99.90;;;;;;5033572;28;20544;-71
2023/10/20 03:04:21;;;;;;;11.00;6.10;;;10.30;99.90;;;;;;5033646;28;20025;-71
2023/10/20 03:06:47;;;;;;;14.27;5.57;;;10.30;99.90;;;;;;5032348;28;20071;-71
2023/10/20 03:09:13;;;;;;;9.55;5.53;;;10.30;99.90;;;;;;5033472;28;20026;-71
2023/10/20 03:11:40;;;;;;;12.43;6.00;;;10.30;99.90;;;;;;5033569;28;20025;-71
2023/10/20 03:14:06;;;;;;;9.75;5.13;;;10.30;99.90;;;;;;5033458;28;20032;-71
2023/10/20 03:16:34;;;;;;;12.88;6.25;;;10.30;99.90;;;;;;5033429;28;20029;-71
2023/10/20 03:19:01;;;;;;;10.25;5.55;;;10.20;99.90;;;;;;5033688;28;20079;-70
2023/10/20 03:21:26;;;;;;;8.63;5.00;;;10.20;99.90;;;;;;5033606;28;20496;-71
2023/10/20 03:23:52;;;;;;;9.73;5.32;;;10.20;99.90;;;;;;5033939;28;20026;-71
2023/10/20 03:26:18;;;;;;;9.95;5.53;;;10.20;99.90;;;;;;5033385;28;20123;-72
2023/10/20 03:28:43;;;;;;;8.52;4.60;;;10.20;99.90;;;;;;5033633;28;20030;-71
2023/10/20 03:31:09;;;;;;;8.50;4.35;;;10.20;99.90;;;;;;5034324;28;20113;-72
2023/10/20 03:33:35;;;;;;;8.75;4.43;;;10.10;99.90;;;;;;5032461;28;20049;-71
2023/10/20 03:36:04;;;;;;;8.50;4.28;;;10.10;99.90;;;;;;5032072;28;20386;-70
2023/10/20 03:38:30;;;;;;;8.27;4.43;;;10.10;99.90;;;;;;5032066;28;20064;-70
2023/10/20 03:41:11;;;;;;;8.25;3.85;;;10.10;99.90;;;;;;5032382;28;20499;-70
2023/10/20 03:43:37;;;;;;;8.38;3.95;;;10.10;99.90;;;;;;5029645;28;20025;-71
2023/10/20 03:46:04;;;;;;;9.35;3.92;;;10.10;99.90;;;;;;5035616;28;20017;-71
2023/10/20 03:48:32;;;;;;;7.32;4.00;;;10.10;99.90;;;;;;5037429;28;20116;-71
2023/10/20 03:50:58;;;;;;;8.02;4.22;;;10.00;99.90;;;;;;5035924;28;20033;-70
2023/10/20 03:53:27;;;;;;;8.50;4.47;;;10.10;99.90;;;;;;5036767;28;20044;-71
2023/10/20 03:56:07;;;;;;;9.32;4.32;;;10.00;99.90;;;;;;5032789;28;20029;-71
2023/10/20 03:58:35;;;;;;;6.70;3.70;;;10.00;99.90;;;;;;5035724;28;20029;-71
2023/10/20 04:01:02;;;;;;;5.95;3.80;;;10.10;99.90;;;;;;5037892;28;20845;-71
2023/10/20 04:03:30;;;;;;;9.35;5.25;;;10.10;99.90;;;;;;5037760;28;20381;-71
2023/10/20 04:05:56;;;;;;;7.85;4.80;;;10.10;99.90;;;;;;5038040;28;20477;-71
2023/10/20 04:08:23;;;;;;;9.15;5.22;;;10.10;99.90;;;;;;5038525;28;20026;-71
2023/10/20 04:10:55;;;;;;;15.18;8.05;;;10.10;99.90;;;;;;5038088;28;20033;-71
2023/10/20 04:13:23;;;;;;;9.57;6.68;;;10.10;99.90;;;;;;5037353;28;20021;-71
2023/10/20 04:15:49;;;;;;;12.15;6.18;;;10.10;99.90;;;;;;5036025;28;20103;-71
2023/10/20 04:18:19;;;;;;;9.23;5.88;;;10.10;99.90;;;;;;5036787;28;20220;-71
2023/10/20 04:20:48;;;;;;;10.13;6.25;;;10.00;99.90;;;;;;5036901;28;20034;-71
2023/10/20 04:23:17;;;;;;;13.43;7.53;;;10.10;99.90;;;;;;5037857;28;20018;-72
2023/10/20 04:25:55;;;;;;;15.15;8.38;;;10.00;99.90;;;;;;5036101;28;20052;-71
2023/10/20 04:28:29;;;;;;;8.90;6.05;;;10.10;99.90;;;;;;5031197;28;20026;-71
2023/10/20 05:00:40;;;;;;;9.93;5.53;;;9.90;99.90;;;;;;5031937;28;20047;-71
2023/10/20 05:03:16;;;;;;;11.77;5.15;;;10.00;99.90;;;;;;5034668;28;20420;-71
2023/10/20 05:05:59;;;;;;;8.25;5.45;;;10.00;99.90;;;;;;5035414;28;20030;-70
2023/10/20 05:08:25;;;;;;;10.20;5.53;;;9.90;99.90;;;;;;5028018;28;20028;-71
2023/10/20 05:10:52;;;;;;;13.50;7.30;;;9.90;99.90;;;;;;5035226;28;20030;-70
2023/10/20 05:13:19;;;;;;;37.17;16.73;;;9.90;99.90;;;;;;5034433;28;20037;-71
2023/10/20 05:15:45;;;;;;;34.13;16.92;;;9.90;99.90;;;;;;5035499;28;20521;-71
2023/10/20 05:18:12;;;;;;;23.30;12.10;;;9.90;99.90;;;;;;5034282;28;20033;-71
2023/10/20 05:20:42;;;;;;;29.00;15.30;;;9.90;99.90;;;;;;5035266;28;20029;-71
2023/10/20 05:23:08;;;;;;;25.95;13.55;;;9.90;99.90;;;;;;5030337;28;20018;-71
2023/10/20 05:25:33;;;;;;;31.38;16.38;;;9.90;99.90;;;;;;5035072;28;20033;-71
2023/10/20 05:28:02;;;;;;;28.08;13.85;;;9.90;99.90;;;;;;5035166;28;20029;-71
2023/10/20 05:30:27;;;;;;;18.75;10.45;;;9.90;99.90;;;;;;5034983;28;20075;-71
2023/10/20 05:32:54;;;;;;;16.85;9.50;;;9.80;99.90;;;;;;5035301;28;20030;-71
2023/10/20 05:35:20;;;;;;;11.68;7.22;;;9.90;99.90;;;;;;5034765;28;20030;-72
2023/10/20 05:37:45;;;;;;;10.65;6.57;;;9.80;99.90;;;;;;5035336;28;20087;-72
2023/10/20 05:40:14;;;;;;;13.35;5.97;;;9.80;99.90;;;;;;5035223;28;20105;-71
2023/10/20 05:42:39;;;;;;;10.23;6.18;;;9.80;99.90;;;;;;5035135;28;20021;-71
2023/10/20 05:45:09;;;;;;;13.88;7.93;;;9.90;99.90;;;;;;5035444;28;20029;-71
2023/10/20 05:47:38;;;;;;;10.87;6.13;;;9.90;99.90;;;;;;5035482;28;20026;-71
2023/10/20 05:50:05;;;;;;;14.27;7.25;;;9.90;99.90;;;;;;5033781;28;20187;-71
2023/10/20 05:52:31;;;;;;;9.63;6.28;;;9.80;99.90;;;;;;5034965;28;20033;-71
2023/10/20 05:54:59;;;;;;;15.55;7.68;;;9.80;99.90;;;;;;5035183;28;20030;-71
2023/10/20 05:57:26;;;;;;;14.32;8.18;;;9.80;99.90;;;;;;5034709;28;20127;-71
2023/10/20 05:59:51;;;;;;;18.52;11.88;;;9.80;99.90;;;;;;5034794;28;20466;-71
2023/10/20 06:02:17;;;;;;;15.68;10.15;;;9.70;99.90;;;;;;5034712;28;20037;-71
2023/10/20 06:04:43;;;;;;;15.18;9.25;;;9.70;99.90;;;;;;5034781;28;20029;-71
2023/10/20 06:07:09;;;;;;;14.65;9.13;;;9.80;99.90;;;;;;5034631;28;20026;-71
2023/10/20 06:09:34;;;;;;;14.65;7.70;;;9.80;99.90;;;;;;5034549;28;20441;-71
2023/10/20 06:12:01;;;;;;;13.10;7.85;;;9.80;99.90;;;;;;5034836;28;20389;-71
2023/10/20 06:14:27;;;;;;;13.40;8.45;;;9.90;99.90;;;;;;5034525;28;20083;-71
2023/10/20 06:16:53;;;;;;;11.93;7.93;;;9.80;99.90;;;;;;5033882;28;20029;-70
2023/10/20 06:19:19;;;;;;;17.08;10.20;;;9.80;99.90;;;;;;5034704;28;20062;-71
2023/10/20 06:21:45;;;;;;;15.98;8.98;;;9.80;99.90;;;;;;5034576;28;20061;-71
2023/10/20 06:24:11;;;;;;;10.98;6.00;;;9.80;99.90;;;;;;5034442;28;20496;-71
2023/10/20 06:26:37;;;;;;;10.23;6.43;;;9.80;99.90;;;;;;5034551;28;20071;-71
2023/10/20 06:29:13;;;;;;;9.90;5.03;;;9.70;99.90;;;;;;5034479;28;20033;-71
2023/10/20 06:31:42;;;;;;;6.00;3.53;;;9.70;99.90;;;;;;5035298;28;20477;-70
2023/10/20 06:36:49;;;;;;;6.85;3.10;;;9.80;99.90;;;;;;5034796;28;20465;-70
2023/10/20 06:39:15;;;;;;;5.03;2.90;;;9.90;99.90;;;;;;5034957;28;20086;-70
2023/10/20 06:41:41;;;;;;;6.28;2.78;;;10.00;99.90;;;;;;5033243;28;20383;-70
2023/10/20 06:44:08;;;;;;;5.75;3.10;;;10.10;99.90;;;;;;5034826;28;20036;-70
2023/10/20 06:46:34;;;;;;;5.15;2.50;;;10.10;99.90;;;;;;5034802;28;20029;-70
2023/10/20 06:49:00;;;;;;;5.18;2.90;;;10.20;99.90;;;;;;5034556;28;20036;-70
2023/10/20 06:51:26;;;;;;;7.18;4.13;;;10.30;99.90;;;;;;5034728;28;20033;-70
2023/10/20 06:53:52;;;;;;;8.27;4.20;;;10.40;99.90;;;;;;5017185;28;20072;-70
2023/10/20 06:56:17;;;;;;;7.32;3.83;;;10.50;99.90;;;;;;5034626;28;20060;-70
2023/10/20 06:58:44;;;;;;;7.00;3.97;;;10.50;99.90;;;;;;5034387;28;20064;-70
2023/10/20 07:01:09;;;;;;;13.35;3.95;;;10.60;99.90;;;;;;5034436;28;20025;-70
2023/10/20 07:03:35;;;;;;;8.98;4.18;;;10.60;99.90;;;;;;5033866;28;20025;-70
2023/10/20 07:06:02;;;;;;;7.60;4.68;;;10.70;99.90;;;;;;5034448;28;20021;-70
2023/10/20 07:08:28;;;;;;;8.88;4.15;;;10.60;99.90;;;;;;5034361;28;20041;-70
2023/10/20 07:11:03;;;;;;;11.52;5.18;;;10.60;99.90;;;;;;5034127;28;20029;-70
2023/10/20 07:13:31;;;;;;;10.68;4.15;;;10.70;99.90;;;;;;5034508;28;20490;-70
2023/10/20 07:15:57;;;;;;;8.40;4.70;;;10.60;99.90;;;;;;5034561;28;20033;-70
2023/10/20 07:18:23;;;;;;;4.55;3.08;;;10.60;99.90;;;;;;5034276;28;20060;-70
2023/10/20 07:20:49;;;;;;;5.10;2.90;;;10.70;99.90;;;;;;5032357;28;20029;-70
2023/10/20 07:23:17;;;;;;;6.07;3.03;;;10.70;99.90;;;;;;5034581;28;20135;-70
2023/10/20 07:25:43;;;;;;;7.95;4.82;;;10.80;99.90;;;;;;5034446;28;20026;-70
2023/10/20 07:28:09;;;;;;;8.35;3.50;;;10.80;99.90;;;;;;5034638;28;20037;-70
2023/10/20 07:30:35;;;;;;;5.90;2.72;;;10.80;99.90;;;;;;5033274;28;20393;-70
2023/10/20 07:33:05;;;;;;;5.07;2.45;;;10.80;99.90;;;;;;5033215;28;20052;-70
2023/10/20 07:35:30;;;;;;;3.60;2.30;;;10.90;99.90;;;;;;5035007;28;20025;-70
2023/10/20 07:37:57;;;;;;;4.82;2.20;;;11.00;99.90;;;;;;5035992;28;20068;-70
2023/10/20 07:40:26;;;;;;;5.40;2.30;;;11.00;99.90;;;;;;5035956;28;20025;-70
2023/10/20 07:42:52;;;;;;;3.60;2.00;;;11.10;99.90;;;;;;5017751;28;20049;-70
2023/10/20 07:45:18;;;;;;;3.63;1.63;;;11.20;99.90;;;;;;5034099;28;20482;-70
2023/10/20 07:47:44;;;;;;;2.92;1.65;;;11.40;99.90;;;;;;5033456;28;20117;-70
2023/10/20 07:50:10;;;;;;;4.90;1.05;;;11.60;99.90;;;;;;5034228;28;20029;-70
2023/10/20 07:52:35;;;;;;;2.63;1.75;;;11.90;99.90;;;;;;5034510;28;20049;-70
2023/10/20 07:55:02;;;;;;;4.60;1.42;;;12.10;99.90;;;;;;5033345;28;20025;-70
2023/10/20 07:57:28;;;;;;;2.65;0.73;;;12.30;99.90;;;;;;5034827;28;20397;-70
2023/10/20 07:59:54;;;;;;;2.13;1.00;;;12.60;99.90;;;;;;5034665;28;20401;-70
2023/10/20 08:02:20;;;;;;;2.15;1.10;;;13.00;99.90;;;;;;5034616;28;20096;-70
2023/10/20 08:04:45;;;;;;;6.55;2.88;;;13.40;99.90;;;;;;5034935;28;20026;-70
2023/10/20 08:07:12;;;;;;;3.42;1.80;;;13.80;99.90;;;;;;5034710;28;20108;-70
2023/10/20 08:09:37;;;;;;;1.70;0.80;;;14.10;99.90;;;;;;5034214;28;20477;-70
2023/10/20 08:12:04;;;;;;;4.95;0.90;;;14.40;99.90;;;;;;5034464;28;20037;-70
2023/10/20 08:14:30;;;;;;;2.80;1.30;;;14.60;99.90;;;;;;5034527;28;20536;-70
2023/10/20 08:16:56;;;;;;;3.15;1.10;;;14.70;99.90;;;;;;5034952;28;20029;-70
2023/10/20 08:19:22;;;;;;;2.72;1.30;;;14.70;99.90;;;;;;5034338;28;20041;-70
2023/10/20 08:21:48;;;;;;;3.90;1.75;;;14.80;99.90;;;;;;5034409;28;20025;-70
2023/10/20 08:24:14;;;;;;;4.45;2.00;;;14.80;99.90;;;;;;5034258;28;20493;-70
2023/10/20 08:26:40;;;;;;;4.93;1.40;;;14.70;99.90;;;;;;5034440;28;20080;-70
2023/10/20 08:29:12;;;;;;;4.60;1.35;;;14.60;99.90;;;;;;5033241;28;20429;-70
2023/10/20 08:31:39;;;;;;;3.85;1.23;;;14.60;99.90;;;;;;5037260;28;20018;-70
2023/10/20 08:34:05;;;;;;;3.60;1.83;;;14.60;99.90;;;;;;5037945;28;20103;-70
2023/10/20 08:36:31;;;;;;;4.22;1.70;;;14.60;99.90;;;;;;5037289;28;20367;-70
2023/10/20 08:39:01;;;;;;;4.90;2.40;;;14.60;99.90;;;;;;5037497;28;20113;-70
2023/10/20 08:41:27;;;;;;;5.45;2.53;;;14.60;99.90;;;;;;5038039;28;20030;-70
2023/10/20 08:43:55;;;;;;;7.47;2.10;;;14.60;99.90;;;;;;5037647;28;20363;-70
2023/10/20 08:46:23;;;;;;;3.08;1.80;;;14.60;99.90;;;;;;5037648;28;20045;-70
2023/10/20 08:48:49;;;;;;;5.57;2.00;;;14.60;99.90;;;;;;5037401;28;20463;-70
2023/10/20 08:51:18;;;;;;;5.05;2.10;;;14.70;99.90;;;;;;5036097;28;20030;-70
2023/10/20 08:53:45;;;;;;;4.78;2.03;;;14.80;99.90;;;;;;5037278;28;20388;-70
2023/10/20 08:56:12;;;;;;;3.90;2.00;;;14.90;99.90;;;;;;5037920;28;20033;-70
2023/10/20 08:58:38;;;;;;;5.55;1.48;;;15.10;99.90;;;;;;5036834;28;20116;-70
2023/10/20 09:01:05;;;;;;;3.50;1.33;;;15.40;99.90;;;;;;5037050;28;20101;-70
2023/10/20 09:03:39;;;;;;;7.63;3.35;;;15.60;99.90;;;;;;5035341;28;20112;-70
2023/10/20 09:06:06;;;;;;;4.10;1.38;;;15.70;99.90;;;;;;5037169;28;20033;-70
2023/10/20 09:08:33;;;;;;;2.83;1.48;;;15.90;99.90;;;;;;5037286;28;20097;-71
2023/10/20 09:10:58;;;;;;;9.02;2.33;;;16.00;99.90;;;;;;5036489;28;20025;-71
2023/10/20 09:13:37;;;;;;;7.07;2.80;;;16.10;99.90;;;;;;5038933;28;20030;-72
2023/10/20 09:16:07;;;;;;;5.85;2.08;;;16.10;99.90;;;;;;5035920;28;20049;-72
2023/10/20 09:18:44;;;;;;;3.38;1.40;;;16.10;99.90;;;;;;5035861;28;20074;-72
2023/10/20 09:21:12;;;;;;;5.15;1.63;;;16.10;99.90;;;;;;5035570;28;20473;-71
2023/10/20 09:23:39;;;;;;;4.13;1.63;;;16.20;99.90;;;;;;5035497;28;20028;-71
2023/10/20 09:26:06;;;;;;;4.57;1.65;;;16.40;99.90;;;;;;5034842;28;20041;-70
2023/10/20 09:28:32;;;;;;;4.10;1.92;;;16.60;99.90;;;;;;5036112;28;20460;-70
2023/10/20 09:30:59;;;;;;;6.15;2.28;;;16.80;99.90;;;;;;5034669;28;20022;-69
2023/10/20 09:33:25;;;;;;;2.97;1.30;;;16.90;99.90;;;;;;5034415;28;20029;-69
2023/10/20 09:35:55;;;;;;;12.90;5.55;;;17.10;99.90;;;;;;5034175;28;20044;-71
2023/10/20 09:38:27;;;;;;;3.28;1.75;;;17.20;99.90;;;;;;5035515;28;20056;-72
2023/10/20 09:41:06;;;;;;;3.83;1.83;;;17.30;99.90;;;;;;5035080;28;20029;-70
2023/10/20 09:43:35;;;;;;;10.50;4.15;;;17.40;99.90;;;;;;5034781;28;20105;-69
2023/10/20 09:46:20;;;;;;;9.70;4.45;;;17.50;99.90;;;;;;5035696;28;20028;-69
2023/10/20 09:48:50;;;;;;;9.07;4.53;;;17.60;99.90;;;;;;5035052;28;20098;-69
2023/10/20 09:51:18;;;;;;;6.60;2.50;;;17.90;99.90;;;;;;5034975;28;20128;-69
2023/10/20 09:53:45;;;;;;;5.28;3.10;;;18.00;99.90;;;;;;5034950;28;20026;-69
2023/10/20 09:56:12;;;;;;;9.82;4.90;;;18.20;99.90;;;;;;5033610;28;20402;-69
2023/10/20 09:58:38;;;;;;;11.73;5.57;;;18.30;99.90;;;;;;5035145;28;20041;-69
2023/10/20 10:01:06;;;;;;;10.73;3.80;;;18.40;99.90;;;;;;5035975;28;20399;-69
2023/10/20 10:03:42;;;;;;;5.43;3.00;;;18.60;99.90;;;;;;5035246;28;20025;-69
2023/10/20 10:06:19;;;;;;;15.05;6.55;;;18.70;99.90;;;;;;5033757;28;20059;-69
2023/10/20 10:08:45;;;;;;;9.55;4.50;;;18.80;99.90;;;;;;5034852;28;20112;-69
2023/10/20 10:11:26;;;;;;;6.30;3.10;;;18.80;99.90;;;;;;5034574;28;20108;-69
2023/10/20 10:14:02;;;;;;;8.00;4.45;;;18.80;99.90;;;;;;5034597;28;20018;-69
2023/10/20 10:16:28;;;;;;;8.02;4.10;;;18.90;99.90;;;;;;5034112;28;20026;-69
2023/10/20 10:18:54;;;;;;;4.82;2.50;;;19.00;99.90;;;;;;5034384;28;20032;-69
2023/10/20 10:21:30;;;;;;;8.98;5.35;;;19.10;99.90;;;;;;5034388;28;20477;-68
2023/10/20 10:24:16;;;;;;;4.00;1.60;;;19.20;99.90;;;;;;5033341;28;20033;-69
2023/10/20 10:26:59;;;;;;;4.07;1.77;;;19.30;99.90;;;;;;5034579;28;20034;-69
2023/10/20 10:29:49;;;;;;;3.60;2.05;;;19.40;99.90;;;;;;5034511;28;20025;-69
2023/10/20 10:32:17;;;;;;;2.70;1.48;;;19.60;99.90;;;;;;5034204;28;20029;-69
2023/10/20 10:34:53;;;;;;;3.20;0.90;;;19.70;99.90;;;;;;5034425;28;20025;-69
2023/10/20 10:37:28;;;;;;;4.40;1.15;;;19.70;99.90;;;;;;5032893;28;20025;-69
2023/10/20 10:40:08;;;;;;;1.73;0.52;;;19.90;99.90;;;;;;5034012;28;20084;-68
2023/10/20 10:42:38;;;;;;;0.95;0.50;;;20.10;99.90;;;;;;5034289;28;20018;-69
2023/10/20 10:45:23;;;;;;;1.25;0.40;;;20.50;99.90;;;;;;5034105;28;20366;-69
2023/10/20 10:48:07;;;;;;;3.35;0.47;;;20.80;99.90;;;;;;5033003;28;20112;-69
2023/10/20 10:50:35;;;;;;;1.08;0.35;;;21.20;99.90;;;;;;5031424;28;20104;-69
2023/10/20 10:53:02;;;;;;;1.95;0.30;;;21.60;99.90;;;;;;5033597;28;20112;-69
2023/10/20 10:55:29;;;;;;;0.85;0.30;;;21.90;99.90;;;;;;5032164;28;20026;-69
2023/10/20 10:57:55;;;;;;;0.47;0.20;;;22.20;99.90;;;;;;5032269;28;20045;-69
2023/10/20 11:00:21;;;;;;;0.30;0.20;;;22.40;98.80;;;;;;5027201;28;20117;-69
2023/10/20 11:02:48;;;;;;;1.35;0.38;;;22.60;95.50;;;;;;5032001;28;20030;-69
2023/10/20 11:05:17;;;;;;;1.05;0.30;;;22.80;96.50;;;;;;5033484;28;20506;-69
2023/10/20 11:07:56;;;;;;;2.92;0.50;;;23.00;95.80;;;;;;5027039;28;20049;-69
2023/10/20 11:10:26;;;;;;;4.40;0.60;;;22.90;98.10;;;;;;5027112;28;20025;-69
2023/10/20 11:12:53;;;;;;;3.58;0.70;;;22.80;98.10;;;;;;5032135;28;20017;-69
2023/10/20 11:15:19;;;;;;;2.15;0.65;;;22.70;99.50;;;;;;5033263;28;20053;-69
2023/10/20 11:17:45;;;;;;;4.53;0.80;;;22.60;97.50;;;;;;5033202;28;20068;-69
2023/10/20 11:20:13;;;;;;;3.65;1.30;;;22.60;98.00;;;;;;5033083;28;20382;-69
2023/10/20 11:22:39;;;;;;;3.20;1.15;;;22.60;97.30;;;;;;5033247;28;20366;-69
2023/10/20 11:25:05;;;;;;;2.08;1.00;;;22.50;97.70;;;;;;5031821;28;20037;-69
2023/10/20 11:27:43;;;;;;;4.55;1.30;;;22.30;97.80;;;;;;5033192;28;20059;-68
2023/10/20 11:30:12;;;;;;;4.50;1.00;;;22.20;98.90;;;;;;5033153;28;20116;-69
2023/10/20 11:32:38;;;;;;;6.22;1.25;;;22.00;99.90;;;;;;5033208;28;20087;-69
2023/10/20 11:35:05;;;;;;;1.50;0.73;;;21.70;99.90;;;;;;5033137;28;20029;-69
2023/10/20 11:37:31;;;;;;;3.47;0.60;;;21.50;99.90;;;;;;5033111;28;20501;-68
2023/10/20 11:39:56;;;;;;;2.38;0.70;;;21.40;99.90;;;;;;5033190;28;20029;-69
2023/10/20 11:42:22;;;;;;;4.90;1.00;;;21.40;99.90;;;;;;5032796;28;20041;-69
2023/10/20 11:44:47;;;;;;;3.15;0.75;;;21.50;99.90;;;;;;5032050;28;20029;-69
2023/10/20 11:47:13;;;;;;;7.22;0.90;;;21.40;99.90;;;;;;5033064;28;20057;-68
2023/10/20 11:49:39;;;;;;;2.05;0.85;;;21.40;99.90;;;;;;5031805;28;20107;-69
2023/10/20 11:52:08;;;;;;;2.00;0.98;;;21.30;99.90;;;;;;5033103;28;20038;-68
2023/10/20 11:54:34;;;;;;;2.47;0.60;;;21.20;99.90;;;;;;5033131;28;20050;-68
2023/10/20 11:56:59;;;;;;;4.68;1.45;;;21.20;99.90;;;;;;5032736;28;20026;-69
2023/10/20 11:59:25;;;;;;;2.85;1.08;;;21.20;99.90;;;;;;5032723;28;20037;-69
2023/10/20 12:01:51;;;;;;;3.83;1.17;;;21.40;99.90;;;;;;5032855;28;20451;-69
2023/10/20 12:04:17;;;;;;;3.65;1.10;;;21.60;99.90;;;;;;5031622;28;20401;-69
2023/10/20 12:06:43;;;;;;;2.28;1.10;;;21.70;99.90;;;;;;5035724;28;20470;-69
2023/10/20 12:09:10;;;;;;;2.55;0.80;;;21.70;99.90;;;;;;5036742;28;20077;-69
2023/10/20 12:11:37;;;;;;;2.78;0.77;;;21.80;99.90;;;;;;5036436;28;20021;-69
2023/10/20 12:14:04;;;;;;;3.30;1.10;;;21.80;99.90;;;;;;5036690;28;20053;-69
2023/10/20 12:16:30;;;;;;;6.53;1.02;;;21.70;99.90;;;;;;5036599;28;20026;-68
2023/10/20 12:19:01;;;;;;;2.80;0.80;;;21.60;99.90;;;;;;5036677;28;20033;-69
2023/10/20 12:21:28;;;;;;;5.00;1.05;;;21.50;99.90;;;;;;5030614;28;20079;-68
2023/10/20 12:23:54;;;;;;;2.65;0.90;;;21.50;99.90;;;;;;5035308;28;20032;-69
2023/10/20 12:26:20;;;;;;;4.25;0.95;;;21.60;99.90;;;;;;5036155;28;20390;-69
2023/10/20 12:28:46;;;;;;;2.63;0.88;;;21.80;99.90;;;;;;5036893;28;20038;-70
2023/10/20 12:31:12;;;;;;;3.15;0.98;;;21.80;99.90;;;;;;5015623;28;20053;-70
2023/10/20 12:33:37;;;;;;;3.40;0.82;;;21.90;99.80;;;;;;5022035;28;20492;-70
2023/10/20 12:36:03;;;;;;;2.63;0.60;;;22.00;98.20;;;;;;5029585;28;20033;-70
2023/10/20 12:38:29;;;;;;;3.10;0.52;;;22.00;96.10;;;;;;5036373;28;20036;-70
2023/10/20 12:40:54;;;;;;;3.88;0.68;;;22.00;94.70;;;;;;5036249;28;20083;-70
2023/10/20 12:43:20;;;;;;;2.35;0.30;;;22.00;94.30;;;;;;5034997;28;20029;-70
2023/10/20 12:45:46;;;;;;;2.95;0.40;;;22.10;93.10;;;;;;5036092;28;20025;-70
2023/10/20 12:48:12;;;;;;;2.88;0.45;;;22.30;90.30;;;;;;5036397;28;20025;-70
2023/10/20 12:50:38;;;;;;;1.27;0.35;;;22.50;90.40;;;;;;5036671;28;20034;-70
2023/10/20 12:53:07;;;;;;;1.95;0.30;;;22.80;86.60;;;;;;5036367;28;20076;-70
2023/10/20 12:55:33;;;;;;;2.63;0.40;;;23.00;85.20;;;;;;5036171;28;20028;-70
2023/10/20 12:57:59;;;;;;;3.35;0.45;;;23.30;81.80;;;;;;5035058;28;20034;-70
2023/10/20 13:00:28;;;;;;;3.78;0.98;;;23.50;77.30;;;;;;5036255;28;20052;-70
2023/10/20 13:02:54;;;;;;;1.65;0.43;;;23.70;77.50;;;;;;5034854;28;20021;-70
2023/10/20 13:05:21;;;;;;;1.55;0.45;;;23.80;77.70;;;;;;5036107;28;20037;-70
2023/10/20 13:07:47;;;;;;;1.55;0.32;;;23.90;77.10;;;;;;5036431;28;20104;-70
2023/10/20 13:10:13;;;;;;;4.05;0.50;;;23.90;77.60;;;;;;5035722;28;20033;-70
2023/10/20 13:12:38;;;;;;;3.92;0.40;;;23.90;79.00;;;;;;5035733;28;20029;-70
2023/10/20 13:15:05;;;;;;;0.55;0.20;;;23.70;76.00;;;;;;5035792;28;20041;-70
2023/10/20 13:17:32;;;;;;;1.00;0.30;;;23.60;76.00;;;;;;5034665;28;20033;-70
2023/10/20 13:19:58;;;;;;;0.98;0.30;;;23.50;79.20;;;;;;5035499;28;20367;-70